LGSK

Details ICAO LGSK (JSI)
Name Skiathos Alexandros Papadiamantis Int'l
Region Greece
Timezone Europe/Athens (UTC+3.0)
Plans Departing 445
Arriving 680
Stats Elevation 54 ft / 16 m (AMSL)
Location 39.176900° 23.503700°
Runways 1
Magnetic Variation 4.638° E
Sunrise 2018-10-20 04:41:33 UTC / 2018-10-20 07:41:33 Local
Sunset 2018-10-20 15:42:21 UTC / 2018-10-20 18:42:21 Local
Advertisement - Login to hide

Runways

ID Width Length Bearing (true/mag) Surface Threshold Overrun Markings Lighting
02 98 ft / 30 m 5,346 ft / 1,630 m 19.09° / 14.45° CONCRETE 0 ft / 0 m 0 ft / 0 m PREC-APP CENTERLINE EDGE THRESHOLD MALSF
20 98 ft / 30 m 5,346 ft / 1,630 m 199.10° / 194.46° CONCRETE 0 ft / 0 m 0 ft / 0 m PREC-APP CENTERLINE EDGE THRESHOLD MALSF

Map

Weather


0- 5 10 15 20 25 30 35+ Temperature / °C

Clouds and Precipitation
Forecast for 2018-10-20 12:00 UTC. Updated 4 hours ago

Ground ~20,000 ft ~40,000 ft Winds

METAR

LGSK 201250Z 03004KT 8000 SCT020 21/18 Q1017

TAF

Not found

Frequencies

Tower 123.25 MHz Skiathos Tower
Approach 126.05 MHz Skiathos Approach
Warning: Do not use this data for real-world aviation or navigation. No guarantee of current accuracy is given.